Time;durP1;ratioP1;P1;durP2;ratioP2;P2;SDS_P1;SDS_P2;PMS_P1;PMS_P2;Temp;Humidity;BMP_temperature;BMP_pressure;BME280_temperature;BME280_humidity;BME280_pressure;Samples;Min_cycle;Max_cycle;Signal;HPM_P1;HPM_P2
2022/03/13 00:01:53;;;;;;;21.85;16.27;;;;;;;;;;5047273;28;20501;-83
2022/03/13 00:04:19;;;;;;;22.85;16.75;;;;;;;;;;5053716;28;20048;-83
2022/03/13 00:06:46;;;;;;;22.98;16.60;;;;;;;;;;5065316;28;20045;-84
2022/03/13 00:09:14;;;;;;;19.40;15.35;;;;;;;;;;5035568;28;20049;-84
2022/03/13 00:11:40;;;;;;;20.88;15.73;;;;;;;;;;5034548;28;20045;-85
2022/03/13 00:14:09;;;;;;;21.60;16.15;;;;;;;;;;5050999;28;20139;-84
2022/03/13 00:16:36;;;;;;;21.42;15.88;;;;;;;;;;5017595;28;20124;-84
2022/03/13 00:19:01;;;;;;;23.13;16.58;;;;;;;;;;5026604;28;20501;-84
2022/03/13 00:21:28;;;;;;;23.67;16.70;;;;;;;;;;5032187;28;20045;-84
2022/03/13 00:23:54;;;;;;;20.27;16.58;;;;;;;;;;5051710;28;20040;-84
2022/03/13 00:26:20;;;;;;;23.38;16.38;;;;;;;;;;5018731;28;20049;-84
2022/03/13 00:28:46;;;;;;;24.10;17.33;;;;;;;;;;5050551;28;20053;-84
2022/03/13 00:31:13;;;;;;;22.58;16.85;;;;;;;;;;5049760;28;20284;-85
2022/03/13 00:33:39;;;;;;;33.88;17.25;;;;;;;;;;5047758;28;20474;-84
2022/03/13 00:36:07;;;;;;;25.40;16.90;;;;;;;;;;5034431;28;20111;-84
2022/03/13 00:38:33;;;;;;;23.17;16.67;;;;;;;;;;5033699;28;20490;-84
2022/03/13 00:40:59;;;;;;;23.52;17.35;;;;;;;;;;5042866;28;20041;-84
2022/03/13 00:43:27;;;;;;;23.17;18.15;;;;;;;;;;5047666;28;20403;-84
2022/03/13 00:45:54;;;;;;;22.60;17.15;;;;;;;;;;5035439;28;20044;-85
2022/03/13 00:48:20;;;;;;;21.90;17.25;;;;;;;;;;5055016;28;20053;-85
2022/03/13 00:50:47;;;;;;;25.02;17.92;;;;;;;;;;5048491;28;20407;-85
2022/03/13 00:53:13;;;;;;;22.58;17.25;;;;;;;;;;5050108;28;20040;-84
2022/03/13 00:55:39;;;;;;;23.30;17.42;;;;;;;;;;5052625;28;20045;-84
2022/03/13 00:58:06;;;;;;;26.27;18.98;;;;;;;;;;5053401;28;20036;-84
2022/03/13 01:00:32;;;;;;;22.77;17.10;;;;;;;;;;5018331;28;20044;-84
2022/03/13 01:02:58;;;;;;;24.83;17.88;;;;;;;;;;5050802;28;20123;-83
2022/03/13 01:05:25;;;;;;;22.33;17.88;;;;;;;;;;5057020;28;20037;-84
2022/03/13 01:07:52;;;;;;;27.33;18.20;;;;;;;;;;5053849;28;20045;-84
2022/03/13 01:10:18;;;;;;;20.83;16.20;;;;;;;;;;5049023;28;20043;-83
2022/03/13 01:12:44;;;;;;;21.90;17.17;;;;;;;;;;5047542;28;20056;-84
2022/03/13 01:15:10;;;;;;;24.08;16.70;;;;;;;;;;5031425;28;20437;-84
2022/03/13 01:17:37;;;;;;;22.73;16.80;;;;;;;;;;5033549;28;20115;-85
2022/03/13 01:20:05;;;;;;;22.08;17.23;;;;;;;;;;5034552;28;20047;-84
2022/03/13 01:22:31;;;;;;;24.95;17.83;;;;;;;;;;5043189;28;20045;-85
2022/03/13 01:24:57;;;;;;;22.73;17.70;;;;;;;;;;5048058;28;20047;-85
2022/03/13 01:27:23;;;;;;;24.23;17.50;;;;;;;;;;5052047;28;20053;-85
2022/03/13 01:29:50;;;;;;;22.33;17.65;;;;;;;;;;5033941;28;20048;-85
2022/03/13 01:32:16;;;;;;;23.50;17.75;;;;;;;;;;5052139;28;20041;-84
2022/03/13 01:34:43;;;;;;;24.67;17.88;;;;;;;;;;5052770;28;20391;-84
2022/03/13 01:37:29;;;;;;;24.30;18.33;;;;;;;;;;5033637;28;20134;-84
2022/03/13 01:39:56;;;;;;;24.20;18.10;;;;;;;;;;5030530;28;20053;-84
2022/03/13 01:42:22;;;;;;;22.50;17.73;;;;;;;;;;5051145;28;20491;-83
2022/03/13 01:44:48;;;;;;;22.02;17.90;;;;;;;;;;5052437;28;20053;-85
2022/03/13 01:47:14;;;;;;;21.45;16.80;;;;;;;;;;5034727;28;20053;-84
2022/03/13 01:49:40;;;;;;;24.27;18.00;;;;;;;;;;5035046;28;20128;-84
2022/03/13 01:52:07;;;;;;;20.90;16.55;;;;;;;;;;5051082;28;20048;-84
2022/03/13 01:54:33;;;;;;;23.15;17.42;;;;;;;;;;5051507;28;20095;-84
2022/03/13 01:57:00;;;;;;;23.17;17.98;;;;;;;;;;5048147;28;20052;-85
2022/03/13 01:59:27;;;;;;;22.75;17.10;;;;;;;;;;5052390;28;20041;-84
2022/03/13 02:01:53;;;;;;;24.58;17.73;;;;;;;;;;5035366;28;20077;-84
2022/03/13 02:04:23;;;;;;;24.35;18.20;;;;;;;;;;5057081;28;20052;-84
2022/03/13 02:06:50;;;;;;;21.30;17.40;;;;;;;;;;5032375;28;20128;-85
2022/03/13 02:09:16;;;;;;;22.05;16.55;;;;;;;;;;5047570;28;20124;-84
2022/03/13 02:11:42;;;;;;;22.33;17.23;;;;;;;;;;5050082;28;20076;-84
2022/03/13 02:14:11;;;;;;;21.35;17.10;;;;;;;;;;5035338;28;20045;-85
2022/03/13 02:16:37;;;;;;;21.90;17.02;;;;;;;;;;5033844;28;20114;-84
2022/03/13 02:19:05;;;;;;;24.25;17.88;;;;;;;;;;5052096;28;20052;-84
2022/03/13 02:21:37;;;;;;;22.90;16.60;;;;;;;;;;5050548;28;20045;-85
2022/03/13 02:24:03;;;;;;;;;;;;;;;;;;5038247;28;20207;-85
2022/03/13 02:26:28;;;;;;;25.98;17.17;;;;;;;;;;5027963;28;19924;-85
2022/03/13 02:28:55;;;;;;;21.77;17.08;;;;;;;;;;5055528;28;20494;-85
2022/03/13 02:31:34;;;;;;;27.15;17.33;;;;;;;;;;5079499;22;20037;-72
2022/03/13 02:34:00;;;;;;;22.40;17.65;;;;;;;;;;5053017;28;20228;-72
2022/03/13 02:36:29;;;;;;;23.05;17.65;;;;;;;;;;5054244;28;20457;-71
2022/03/13 02:38:55;;;;;;;22.88;18.40;;;;;;;;;;5050595;28;20154;-72
2022/03/13 02:41:21;;;;;;;25.13;17.70;;;;;;;;;;5053568;28;20507;-71
2022/03/13 02:43:47;;;;;;;20.45;16.95;;;;;;;;;;5052653;28;20168;-72
2022/03/13 02:46:20;;;;;;;23.50;17.60;;;;;;;;;;5041598;28;20133;-71
2022/03/13 02:48:47;;;;;;;24.48;17.42;;;;;;;;;;5051129;28;20527;-72
2022/03/13 02:51:13;;;;;;;22.48;17.83;;;;;;;;;;5054399;28;20507;-71
2022/03/13 02:53:39;;;;;;;24.67;18.48;;;;;;;;;;5052221;28;20128;-72
2022/03/13 02:56:06;;;;;;;22.45;16.85;;;;;;;;;;5053599;28;20037;-72
2022/03/13 02:58:35;;;;;;;23.27;17.92;;;;;;;;;;5033461;28;20511;-72
2022/03/13 03:01:01;;;;;;;24.50;17.35;;;;;;;;;;5054347;28;20040;-71
2022/03/13 03:03:27;;;;;;;23.77;18.27;;;;;;;;;;5030980;28;20147;-72
2022/03/13 03:05:53;;;;;;;24.13;18.48;;;;;;;;;;5054207;28;20528;-72
2022/03/13 03:08:21;;;;;;;25.48;17.90;;;;;;;;;;5053054;28;20041;-72
2022/03/13 03:10:48;;;;;;;24.33;18.77;;;;;;;;;;5051867;28;20044;-72
2022/03/13 03:13:15;;;;;;;22.35;18.00;;;;;;;;;;5053279;28;20099;-71
2022/03/13 03:15:41;;;;;;;26.10;18.02;;;;;;;;;;5049739;28;20047;-72
2022/03/13 03:18:09;;;;;;;22.38;17.50;;;;;;;;;;5053245;28;20052;-71
2022/03/13 03:20:35;;;;;;;23.13;17.90;;;;;;;;;;5052946;28;20044;-72
2022/03/13 03:23:01;;;;;;;23.60;17.95;;;;;;;;;;5054364;28;20385;-72
2022/03/13 03:25:28;;;;;;;24.38;18.05;;;;;;;;;;5045553;28;20049;-72
2022/03/13 03:27:55;;;;;;;23.48;18.25;;;;;;;;;;5046754;28;20056;-72
2022/03/13 03:30:21;;;;;;;23.05;17.27;;;;;;;;;;5052466;28;20033;-71
2022/03/13 03:32:48;;;;;;;27.00;17.85;;;;;;;;;;5053689;28;20076;-72
2022/03/13 03:35:14;;;;;;;22.88;17.50;;;;;;;;;;5052997;28;20547;-71
2022/03/13 03:37:40;;;;;;;24.35;17.73;;;;;;;;;;5052480;28;20438;-72
2022/03/13 03:40:07;;;;;;;23.33;17.85;;;;;;;;;;5034689;28;20041;-71
2022/03/13 03:42:34;;;;;;;24.75;18.35;;;;;;;;;;5052995;28;20049;-71
2022/03/13 03:45:00;;;;;;;21.70;16.85;;;;;;;;;;5051646;28;20617;-71
2022/03/13 03:47:26;;;;;;;25.80;18.75;;;;;;;;;;5052402;28;20045;-72
2022/03/13 03:49:52;;;;;;;23.80;17.38;;;;;;;;;;5034813;28;20388;-71
2022/03/13 03:52:18;;;;;;;22.25;17.25;;;;;;;;;;5053245;28;20411;-72
2022/03/13 03:54:44;;;;;;;25.63;17.33;;;;;;;;;;5053954;28;20049;-72
2022/03/13 03:57:10;;;;;;;23.83;18.10;;;;;;;;;;5052208;28;20053;-72
2022/03/13 03:59:36;;;;;;;22.77;18.10;;;;;;;;;;5052688;28;20147;-71
2022/03/13 04:02:02;;;;;;;24.10;17.60;;;;;;;;;;5048791;28;20045;-71
2022/03/13 04:04:28;;;;;;;25.08;17.63;;;;;;;;;;5018141;28;20068;-71
2022/03/13 04:06:54;;;;;;;23.88;17.08;;;;;;;;;;5053124;28;20051;-72
2022/03/13 04:09:20;;;;;;;23.13;17.98;;;;;;;;;;5049764;28;20040;-72
2022/03/13 04:11:47;;;;;;;22.20;17.33;;;;;;;;;;5051580;28;20380;-72
2022/03/13 04:14:14;;;;;;;25.70;17.40;;;;;;;;;;5051920;28;20067;-71
2022/03/13 04:16:40;;;;;;;23.77;17.33;;;;;;;;;;5034837;28;20488;-70
2022/03/13 04:19:08;;;;;;;21.23;16.55;;;;;;;;;;5049739;28;20124;-70
2022/03/13 04:21:35;;;;;;;22.33;16.25;;;;;;;;;;5053088;28;20049;-71
2022/03/13 04:24:01;;;;;;;23.33;16.50;;;;;;;;;;5051288;28;20053;-71
2022/03/13 04:26:27;;;;;;;23.40;17.55;;;;;;;;;;5050399;28;20076;-71
2022/03/13 04:28:53;;;;;;;20.00;14.43;;;;;;;;;;5051887;28;20041;-71
2022/03/13 04:31:19;;;;;;;22.42;16.65;;;;;;;;;;5049012;28;20063;-71
2022/03/13 04:33:45;;;;;;;23.55;17.73;;;;;;;;;;5034975;28;20097;-71
2022/03/13 04:36:14;;;;;;;22.67;16.75;;;;;;;;;;5033558;28;20376;-71
2022/03/13 04:38:43;;;;;;;20.25;15.93;;;;;;;;;;5051032;28;20087;-71
2022/03/13 04:41:10;;;;;;;23.63;16.65;;;;;;;;;;5034926;28;20052;-71
2022/03/13 04:43:37;;;;;;;25.88;16.80;;;;;;;;;;5052298;28;20158;-71
2022/03/13 04:46:03;;;;;;;22.33;17.55;;;;;;;;;;5032106;28;20514;-71
2022/03/13 04:48:32;;;;;;;22.52;16.30;;;;;;;;;;5034221;28;20041;-71
2022/03/13 04:50:59;;;;;;;22.38;16.33;;;;;;;;;;5050546;28;20041;-71
2022/03/13 04:53:25;;;;;;;21.55;16.00;;;;;;;;;;5034148;28;20045;-71
2022/03/13 04:55:51;;;;;;;22.98;16.45;;;;;;;;;;5052011;28;20495;-71
2022/03/13 04:58:19;;;;;;;21.30;15.70;;;;;;;;;;5052483;28;20049;-71
2022/03/13 05:00:47;;;;;;;21.75;17.17;;;;;;;;;;5033904;28;20049;-72
2022/03/13 05:03:13;;;;;;;25.05;17.02;;;;;;;;;;5050745;28;20124;-70
2022/03/13 05:05:40;;;;;;;22.38;17.08;;;;;;;;;;5049703;28;20045;-70
2022/03/13 05:08:08;;;;;;;24.48;17.48;;;;;;;;;;5008417;28;20041;-72
2022/03/13 05:10:37;;;;;;;23.83;17.27;;;;;;;;;;5047725;28;20046;-71
2022/03/13 05:13:07;;;;;;;22.88;16.98;;;;;;;;;;5028370;28;20048;-71
2022/03/13 05:15:33;;;;;;;21.90;16.20;;;;;;;;;;5049985;28;20041;-71
2022/03/13 05:18:00;;;;;;;22.52;15.82;;;;;;;;;;5032123;28;20045;-71
2022/03/13 05:20:26;;;;;;;23.27;16.17;;;;;;;;;;5049726;28;20500;-72
2022/03/13 05:22:53;;;;;;;22.13;15.68;;;;;;;;;;5031725;28;20041;-71
2022/03/13 05:25:19;;;;;;;23.08;15.95;;;;;;;;;;5031728;28;20060;-71
2022/03/13 05:27:45;;;;;;;23.00;16.17;;;;;;;;;;5052103;28;20383;-71
2022/03/13 05:30:11;;;;;;;24.13;15.95;;;;;;;;;;5050361;28;20048;-71
2022/03/13 05:32:37;;;;;;;22.02;15.40;;;;;;;;;;5051330;28;20044;-72
2022/03/13 05:35:03;;;;;;;22.40;16.60;;;;;;;;;;5051763;28;20053;-71
2022/03/13 05:37:29;;;;;;;22.92;15.32;;;;;;;;;;5051303;28;20049;-72
2022/03/13 05:39:56;;;;;;;21.48;16.02;;;;;;;;;;5031640;28;20056;-72
2022/03/13 05:42:24;;;;;;;21.65;15.80;;;;;;;;;;5050254;28;20044;-71
2022/03/13 05:44:54;;;;;;;23.30;15.35;;;;;;;;;;5031458;28;20107;-71
2022/03/13 05:47:21;;;;;;;23.52;15.57;;;;;;;;;;5050068;28;20033;-71
2022/03/13 05:49:47;;;;;;;21.70;15.50;;;;;;;;;;5050517;28;20045;-71
2022/03/13 05:52:14;;;;;;;20.58;15.07;;;;;;;;;;5033392;28;20556;-71
2022/03/13 05:54:40;;;;;;;21.67;16.35;;;;;;;;;;5051477;28;20082;-71
2022/03/13 05:57:10;;;;;;;23.67;15.65;;;;;;;;;;5051590;28;20068;-71
2022/03/13 05:59:36;;;;;;;22.27;15.88;;;;;;;;;;5052143;28;20045;-71
2022/03/13 06:02:04;;;;;;;21.73;15.77;;;;;;;;;;5053841;28;20041;-72
2022/03/13 06:04:32;;;;;;;22.10;15.88;;;;;;;;;;5054482;28;20179;-71
2022/03/13 06:06:58;;;;;;;17.98;14.60;;;;;;;;;;5054453;28;20072;-70
2022/03/13 06:09:24;;;;;;;22.40;16.33;;;;;;;;;;5053363;28;20130;-71
2022/03/13 06:11:50;;;;;;;20.58;15.40;;;;;;;;;;5054471;28;20071;-71
2022/03/13 06:14:17;;;;;;;21.33;15.73;;;;;;;;;;5038181;28;20068;-71
2022/03/13 06:16:43;;;;;;;21.65;15.68;;;;;;;;;;5054810;28;20142;-71
2022/03/13 06:19:09;;;;;;;21.50;15.77;;;;;;;;;;5037449;28;20095;-71
2022/03/13 06:21:35;;;;;;;22.35;15.23;;;;;;;;;;5036568;28;20044;-70
2022/03/13 06:24:00;;;;;;;19.80;15.52;;;;;;;;;;5024892;28;20057;-71
2022/03/13 06:26:27;;;;;;;25.25;15.63;;;;;;;;;;5053373;28;20130;-71
2022/03/13 06:28:53;;;;;;;20.83;15.05;;;;;;;;;;5041803;28;20037;-70
2022/03/13 06:31:20;;;;;;;21.38;14.80;;;;;;;;;;5055121;28;20051;-71
2022/03/13 06:33:46;;;;;;;20.88;15.63;;;;;;;;;;5054832;28;20076;-71
2022/03/13 06:36:12;;;;;;;22.25;15.88;;;;;;;;;;5037722;28;20071;-71
2022/03/13 06:38:38;;;;;;;20.33;15.20;;;;;;;;;;5053814;28;20052;-71
2022/03/13 06:41:05;;;;;;;20.20;15.00;;;;;;;;;;5054338;28;20069;-71
2022/03/13 06:43:32;;;;;;;23.55;15.70;;;;;;;;;;5034290;28;20131;-71
2022/03/13 06:45:58;;;;;;;20.08;15.63;;;;;;;;;;5036609;28;20579;-70
2022/03/13 06:48:26;;;;;;;19.95;14.68;;;;;;;;;;5035382;28;20132;-71
2022/03/13 06:50:53;;;;;;;21.33;15.13;;;;;;;;;;5030980;28;20133;-71
2022/03/13 06:53:19;;;;;;;20.65;14.50;;;;;;;;;;5033864;28;20073;-71
2022/03/13 06:55:45;;;;;;;20.15;14.38;;;;;;;;;;5052427;28;20542;-71
2022/03/13 06:58:11;;;;;;;19.90;14.52;;;;;;;;;;5035261;28;20518;-71
2022/03/13 07:00:37;;;;;;;19.35;15.02;;;;;;;;;;5038095;28;20042;-71
2022/03/13 07:03:03;;;;;;;20.50;14.20;;;;;;;;;;5033004;28;20154;-71
2022/03/13 07:05:30;;;;;;;20.48;14.38;;;;;;;;;;5029690;28;20038;-71
2022/03/13 07:07:57;;;;;;;19.08;13.50;;;;;;;;;;5036447;28;20080;-71
2022/03/13 07:10:23;;;;;;;21.02;12.60;;;;;;;;;;5034610;28;20057;-71
2022/03/13 07:12:50;;;;;;;16.40;12.88;;;;;;;;;;5050412;28;20102;-71
2022/03/13 07:15:18;;;;;;;18.67;13.35;;;;;;;;;;5036212;28;20049;-71
2022/03/13 07:17:45;;;;;;;18.30;12.88;;;;;;;;;;5036794;28;20041;-71
2022/03/13 07:20:11;;;;;;;17.50;12.25;;;;;;;;;;5053076;28;20045;-70
2022/03/13 07:22:37;;;;;;;20.40;12.90;;;;;;;;;;5048552;28;20092;-71
2022/03/13 07:25:03;;;;;;;17.95;12.85;;;;;;;;;;5053487;28;20538;-70
2022/03/13 07:27:29;;;;;;;19.05;13.32;;;;;;;;;;5053980;28;20087;-70
2022/03/13 07:29:55;;;;;;;20.83;13.75;;;;;;;;;;5053521;28;20073;-71
2022/03/13 07:32:22;;;;;;;19.17;13.52;;;;;;;;;;5052508;28;20053;-71
2022/03/13 07:34:48;;;;;;;18.67;13.35;;;;;;;;;;5049532;28;20143;-71
2022/03/13 07:37:14;;;;;;;17.42;12.75;;;;;;;;;;5036235;28;20049;-71
2022/03/13 07:39:41;;;;;;;18.23;11.98;;;;;;;;;;5035609;28;20524;-71
2022/03/13 07:42:08;;;;;;;18.55;13.60;;;;;;;;;;5028047;28;20056;-71
2022/03/13 07:44:34;;;;;;;21.50;12.80;;;;;;;;;;5035324;28;20045;-70
2022/03/13 07:47:00;;;;;;;17.48;12.73;;;;;;;;;;5036447;28;20049;-70
2022/03/13 07:49:26;;;;;;;18.35;12.45;;;;;;;;;;5035177;28;20040;-70
2022/03/13 07:51:52;;;;;;;17.60;12.48;;;;;;;;;;5042269;28;20395;-70
2022/03/13 07:54:20;;;;;;;18.52;13.02;;;;;;;;;;5036156;28;20041;-71
2022/03/13 07:56:47;;;;;;;16.00;12.18;;;;;;;;;;5053943;28;20125;-71
2022/03/13 07:59:13;;;;;;;16.75;12.60;;;;;;;;;;5035960;28;20037;-71
2022/03/13 08:01:39;;;;;;;19.75;13.27;;;;;;;;;;5036537;28;20081;-71
2022/03/13 08:04:05;;;;;;;16.55;12.00;;;;;;;;;;5035674;28;20487;-71
2022/03/13 08:06:35;;;;;;;17.05;12.57;;;;;;;;;;5035873;28;20399;-71
2022/03/13 08:09:02;;;;;;;17.40;13.18;;;;;;;;;;5053474;28;20514;-70
2022/03/13 08:11:28;;;;;;;17.23;13.00;;;;;;;;;;5058278;28;20041;-72
2022/03/13 08:13:54;;;;;;;16.95;12.63;;;;;;;;;;5052975;28;20384;-71
2022/03/13 08:16:20;;;;;;;20.70;12.43;;;;;;;;;;5054010;28;20051;-71
2022/03/13 08:18:46;;;;;;;16.23;12.50;;;;;;;;;;5053118;28;20045;-72
2022/03/13 08:21:13;;;;;;;20.15;12.88;;;;;;;;;;5053624;28;20041;-70
2022/03/13 08:23:39;;;;;;;17.52;12.35;;;;;;;;;;5035423;28;20598;-71
2022/03/13 08:26:05;;;;;;;17.85;13.00;;;;;;;;;;5053396;28;20048;-71
2022/03/13 08:28:32;;;;;;;19.27;13.32;;;;;;;;;;5034387;28;20041;-71
2022/03/13 08:30:58;;;;;;;17.90;12.70;;;;;;;;;;5045309;28;20053;-71
2022/03/13 08:33:24;;;;;;;18.15;13.07;;;;;;;;;;5034532;28;20100;-71
2022/03/13 08:35:51;;;;;;;16.98;12.38;;;;;;;;;;5053515;28;20041;-70
2022/03/13 08:38:17;;;;;;;16.42;12.18;;;;;;;;;;5052973;28;20041;-71
2022/03/13 08:40:43;;;;;;;16.90;12.50;;;;;;;;;;5050030;28;20128;-72
2022/03/13 08:43:09;;;;;;;16.63;12.27;;;;;;;;;;5025026;28;20411;-71
2022/03/13 08:45:35;;;;;;;17.55;12.50;;;;;;;;;;5053471;28;20037;-71
2022/03/13 08:48:01;;;;;;;16.27;11.88;;;;;;;;;;5018830;28;20041;-71
2022/03/13 08:50:27;;;;;;;18.27;12.55;;;;;;;;;;5052549;28;20056;-71
2022/03/13 08:52:53;;;;;;;16.65;12.10;;;;;;;;;;5021087;28;20048;-71
2022/03/13 08:55:19;;;;;;;16.42;12.63;;;;;;;;;;5043500;28;20045;-71
2022/03/13 08:57:46;;;;;;;17.83;12.35;;;;;;;;;;5034798;28;20060;-70
2022/03/13 09:00:16;;;;;;;17.23;12.20;;;;;;;;;;5034758;28;20037;-71
2022/03/13 09:02:42;;;;;;;16.88;12.77;;;;;;;;;;5052599;28;20060;-71
2022/03/13 09:05:08;;;;;;;16.85;12.30;;;;;;;;;;5053064;28;20427;-70
2022/03/13 09:07:34;;;;;;;14.40;11.88;;;;;;;;;;5052389;28;20411;-70
2022/03/13 09:10:02;;;;;;;18.55;12.80;;;;;;;;;;5047463;28;20037;-70
2022/03/13 09:12:31;;;;;;;15.10;11.82;;;;;;;;;;5044678;28;20045;-70
2022/03/13 09:14:57;;;;;;;16.40;12.02;;;;;;;;;;5047846;28;20049;-70
2022/03/13 09:17:23;;;;;;;18.27;12.52;;;;;;;;;;5052506;28;20041;-70
2022/03/13 09:19:49;;;;;;;18.00;12.60;;;;;;;;;;5060192;28;20052;-69
2022/03/13 09:22:17;;;;;;;17.13;12.18;;;;;;;;;;5057130;28;20116;-70
2022/03/13 09:24:45;;;;;;;17.63;12.70;;;;;;;;;;5051948;28;20495;-71
2022/03/13 09:27:11;;;;;;;15.63;12.05;;;;;;;;;;5052509;28;20055;-70
2022/03/13 09:29:37;;;;;;;15.68;12.35;;;;;;;;;;5039829;28;20044;-70
2022/03/13 09:32:04;;;;;;;15.48;11.90;;;;;;;;;;5048642;28;20064;-70
2022/03/13 09:34:31;;;;;;;17.85;12.40;;;;;;;;;;5018309;28;20056;-69
2022/03/13 09:36:58;;;;;;;15.40;11.85;;;;;;;;;;5034328;28;20107;-69
2022/03/13 09:39:25;;;;;;;16.75;12.60;;;;;;;;;;5048791;28;20045;-69
2022/03/13 09:41:52;;;;;;;15.15;12.18;;;;;;;;;;5046078;28;20068;-70
2022/03/13 09:44:18;;;;;;;16.90;11.88;;;;;;;;;;5046170;28;20041;-70
2022/03/13 09:46:44;;;;;;;19.42;12.30;;;;;;;;;;5049005;28;20033;-69
2022/03/13 09:49:10;;;;;;;15.68;12.65;;;;;;;;;;5041938;28;20041;-70
2022/03/13 09:51:36;;;;;;;18.35;12.40;;;;;;;;;;5041404;28;20044;-70
2022/03/13 09:54:02;;;;;;;16.60;12.80;;;;;;;;;;5050757;28;20106;-71
2022/03/13 09:56:29;;;;;;;17.63;12.57;;;;;;;;;;5034096;28;20064;-71
2022/03/13 09:58:55;;;;;;;17.13;12.52;;;;;;;;;;5032677;28;20391;-71
2022/03/13 10:01:21;;;;;;;17.48;12.80;;;;;;;;;;5051924;28;20053;-71
2022/03/13 10:03:48;;;;;;;17.35;12.65;;;;;;;;;;5026504;28;20057;-71
2022/03/13 10:06:14;;;;;;;17.08;13.27;;;;;;;;;;5032354;28;20054;-71
2022/03/13 10:08:40;;;;;;;18.42;12.00;;;;;;;;;;5028929;28;20508;-71
2022/03/13 10:11:07;;;;;;;15.05;11.77;;;;;;;;;;5034283;28;20049;-71
2022/03/13 10:13:33;;;;;;;16.75;12.80;;;;;;;;;;5051900;28;20167;-71
2022/03/13 10:15:59;;;;;;;19.60;12.70;;;;;;;;;;5049270;28;20124;-70
2022/03/13 10:18:26;;;;;;;18.35;12.80;;;;;;;;;;5049622;28;20041;-70
2022/03/13 10:20:53;;;;;;;16.92;12.57;;;;;;;;;;5051576;28;20039;-70
2022/03/13 10:23:20;;;;;;;16.85;12.70;;;;;;;;;;5027442;28;20103;-70
2022/03/13 10:25:50;;;;;;;18.15;12.98;;;;;;;;;;5037304;28;20396;-70
2022/03/13 10:28:23;;;;;;;17.43;12.67;;;;;;;;;;5067428;28;20510;-70
2022/03/13 10:30:56;;;;;;;17.25;12.73;;;;;;;;;;5053845;28;20049;-70
2022/03/13 10:33:23;;;;;;;17.48;13.90;;;;;;;;;;5051320;28;20384;-71
2022/03/13 10:35:49;;;;;;;21.30;14.15;;;;;;;;;;5052093;28;20103;-71
2022/03/13 10:38:15;;;;;;;16.60;13.23;;;;;;;;;;5033728;28;20404;-71
2022/03/13 10:40:45;;;;;;;18.35;12.52;;;;;;;;;;5051830;28;20132;-71
2022/03/13 10:43:12;;;;;;;18.93;12.57;;;;;;;;;;5051459;28;20563;-71
2022/03/13 10:45:49;;;;;;;17.73;12.70;;;;;;;;;;5051763;28;20052;-71
2022/03/13 10:48:16;;;;;;;18.50;12.70;;;;;;;;;;5035426;28;20118;-70
2022/03/13 10:50:45;;;;;;;16.95;13.32;;;;;;;;;;5037283;28;20049;-70
2022/03/13 10:53:15;;;;;;;18.17;12.77;;;;;;;;;;5052830;28;20129;-70
2022/03/13 10:55:42;;;;;;;16.10;12.35;;;;;;;;;;5037493;28;20049;-71
2022/03/13 10:58:08;;;;;;;18.73;13.05;;;;;;;;;;5037020;28;20428;-71
2022/03/13 11:00:35;;;;;;;17.20;13.30;;;;;;;;;;5037336;28;20487;-71
2022/03/13 11:03:11;;;;;;;17.67;13.00;;;;;;;;;;5052696;28;20057;-71
2022/03/13 11:05:37;;;;;;;17.25;12.27;;;;;;;;;;5036839;28;20080;-71
2022/03/13 11:08:04;;;;;;;16.15;13.02;;;;;;;;;;5037219;28;20064;-68
2022/03/13 11:10:30;;;;;;;18.10;12.75;;;;;;;;;;5036736;28;20044;-70
2022/03/13 11:12:57;;;;;;;19.58;12.85;;;;;;;;;;5054125;28;20124;-70
2022/03/13 11:15:30;;;;;;;17.25;12.27;;;;;;;;;;5054366;28;20487;-70
2022/03/13 11:17:57;;;;;;;19.80;12.77;;;;;;;;;;5053670;28;20056;-70
2022/03/13 11:20:24;;;;;;;18.67;13.02;;;;;;;;;;5054398;28;20096;-70
2022/03/13 11:22:50;;;;;;;19.45;12.95;;;;;;;;;;5054443;28;20044;-69
2022/03/13 11:25:17;;;;;;;16.88;12.52;;;;;;;;;;5025698;28;20552;-69
2022/03/13 11:27:43;;;;;;;17.60;12.68;;;;;;;;;;5024470;28;20090;-71
2022/03/13 11:30:13;;;;;;;16.95;12.20;;;;;;;;;;5036476;28;20103;-70
2022/03/13 11:32:42;;;;;;;19.83;12.52;;;;;;;;;;5057584;28;20052;-71
2022/03/13 11:35:13;;;;;;;19.50;13.02;;;;;;;;;;5054292;28;20069;-71
2022/03/13 11:37:43;;;;;;;15.25;12.35;;;;;;;;;;5052064;28;20400;-70
2022/03/13 11:40:10;;;;;;;16.42;12.88;;;;;;;;;;5025566;28;20120;-70
2022/03/13 11:42:56;;;;;;;18.48;12.88;;;;;;;;;;5032956;28;20404;-70
2022/03/13 11:45:32;;;;;;;17.90;12.32;;;;;;;;;;5048560;28;20048;-71
2022/03/13 11:48:19;;;;;;;17.05;12.77;;;;;;;;;;5053498;28;20106;-71
2022/03/13 11:50:48;;;;;;;17.67;12.95;;;;;;;;;;5054104;28;20053;-71
2022/03/13 11:53:15;;;;;;;16.67;12.90;;;;;;;;;;5052450;28;20049;-70
2022/03/13 11:56:00;;;;;;;17.92;13.00;;;;;;;;;;5054176;28;20041;-70
2022/03/13 11:58:48;;;;;;;15.43;12.15;;;;;;;;;;5053350;28;20045;-70
2022/03/13 12:01:21;;;;;;;17.92;12.45;;;;;;;;;;5036279;28;20049;-69
2022/03/13 12:04:05;;;;;;;16.15;12.55;;;;;;;;;;5053899;28;20056;-69
2022/03/13 12:06:50;;;;;;;19.88;12.80;;;;;;;;;;5043922;28;20466;-70
2022/03/13 12:09:20;;;;;;;16.77;12.45;;;;;;;;;;5053374;28;20075;-70
2022/03/13 12:11:52;;;;;;;16.92;12.82;;;;;;;;;;5053730;28;20041;-70
2022/03/13 12:14:19;;;;;;;17.45;12.48;;;;;;;;;;5053873;28;20052;-71
2022/03/13 12:16:47;;;;;;;17.92;13.13;;;;;;;;;;5053438;28;21724;-70
2022/03/13 12:19:15;;;;;;;17.83;12.52;;;;;;;;;;5034412;28;20044;-70
2022/03/13 12:21:45;;;;;;;15.73;12.48;;;;;;;;;;5053339;28;20060;-70
2022/03/13 12:24:16;;;;;;;21.52;12.77;;;;;;;;;;5026565;28;20060;-72
2022/03/13 12:26:46;;;;;;;16.13;11.70;;;;;;;;;;5053513;28;20060;-71
2022/03/13 12:29:13;;;;;;;15.85;11.60;;;;;;;;;;5053003;28;20037;-71
2022/03/13 12:31:41;;;;;;;19.38;12.60;;;;;;;;;;5019185;28;20492;-72
2022/03/13 12:34:07;;;;;;;15.80;11.90;;;;;;;;;;5052487;28;20110;-70
2022/03/13 12:36:37;;;;;;;17.17;12.68;;;;;;;;;;5036147;28;20399;-70
2022/03/13 12:39:08;;;;;;;16.33;11.88;;;;;;;;;;5050962;28;20120;-70
2022/03/13 12:41:34;;;;;;;;;;;;;;;;;;5035422;28;20049;-70
2022/03/13 12:44:05;;;;;;;17.63;12.75;;;;;;;;;;5018752;28;19928;-71
2022/03/13 12:46:32;;;;;;;15.68;11.95;;;;;;;;;;5053262;28;20049;-70
2022/03/13 12:49:03;;;;;;;16.98;12.45;;;;;;;;;;5052098;28;20056;-70
2022/03/13 12:51:41;;;;;;;17.83;12.73;;;;;;;;;;5018453;28;20075;-70
2022/03/13 12:54:16;;;;;;;19.10;12.27;;;;;;;;;;5052566;28;20052;-71
2022/03/13 12:56:45;;;;;;;16.40;12.30;;;;;;;;;;5052470;28;20045;-69
2022/03/13 12:59:41;;;;;;;15.93;12.82;;;;;;;;;;5052848;28;20128;-70
2022/03/13 13:02:16;;;;;;;15.57;12.55;;;;;;;;;;5035762;28;20049;-69
2022/03/13 13:04:45;;;;;;;15.77;12.35;;;;;;;;;;5052867;28;20055;-70
2022/03/13 13:07:11;;;;;;;15.52;12.52;;;;;;;;;;5028308;28;20121;-69
2022/03/13 13:09:38;;;;;;;17.55;13.02;;;;;;;;;;5040134;28;20372;-70
2022/03/13 13:12:07;;;;;;;15.93;12.50;;;;;;;;;;5048996;28;20053;-70
2022/03/13 13:14:33;;;;;;;15.93;12.70;;;;;;;;;;5052313;28;20053;-70
2022/03/13 13:16:59;;;;;;;17.48;12.15;;;;;;;;;;5050349;28;20049;-70
2022/03/13 13:19:29;;;;;;;17.63;12.45;;;;;;;;;;5034764;28;20472;-69
2022/03/13 13:21:56;;;;;;;18.33;13.00;;;;;;;;;;5051934;28;20445;-70
2022/03/13 13:24:25;;;;;;;18.23;13.02;;;;;;;;;;5051099;28;20053;-70
2022/03/13 13:26:51;;;;;;;17.05;13.15;;;;;;;;;;5032785;28;20052;-70
2022/03/13 13:29:39;;;;;;;18.50;12.88;;;;;;;;;;5034709;28;20045;-70
2022/03/13 13:32:24;;;;;;;18.92;12.73;;;;;;;;;;5051787;28;20381;-70
2022/03/13 13:35:03;;;;;;;18.23;12.95;;;;;;;;;;5051984;28;20068;-70
2022/03/13 13:37:29;;;;;;;17.38;13.20;;;;;;;;;;5034465;28;20047;-71
2022/03/13 13:40:07;;;;;;;17.15;12.70;;;;;;;;;;5034500;28;20055;-71
2022/03/13 13:42:35;;;;;;;19.30;13.13;;;;;;;;;;5033850;28;20120;-70
2022/03/13 13:45:02;;;;;;;18.15;13.23;;;;;;;;;;5017283;28;20048;-70
2022/03/13 13:47:28;;;;;;;16.65;13.23;;;;;;;;;;5052340;28;20110;-71
2022/03/13 13:49:54;;;;;;;18.80;12.98;;;;;;;;;;5041441;28;20215;-69
2022/03/13 13:52:28;;;;;;;19.88;12.88;;;;;;;;;;5031944;28;20064;-71
2022/03/13 13:54:54;;;;;;;18.10;12.30;;;;;;;;;;5049383;28;20131;-71
2022/03/13 13:57:21;;;;;;;18.20;12.63;;;;;;;;;;5050920;28;20565;-71
2022/03/13 13:59:47;;;;;;;17.38;12.50;;;;;;;;;;5032211;28;20077;-71
2022/03/13 14:02:18;;;;;;;18.38;13.45;;;;;;;;;;5049306;28;20044;-72
2022/03/13 14:04:46;;;;;;;16.98;12.55;;;;;;;;;;5052101;28;20052;-70
2022/03/13 14:07:12;;;;;;;17.75;12.50;;;;;;;;;;5050197;28;20126;-69
2022/03/13 14:09:39;;;;;;;14.68;11.50;;;;;;;;;;5050542;28;20316;-71
2022/03/13 14:12:06;;;;;;;15.35;11.50;;;;;;;;;;5043425;28;20043;-72
2022/03/13 14:14:32;;;;;;;15.63;11.98;;;;;;;;;;5051805;28;20488;-71
2022/03/13 14:16:58;;;;;;;14.65;10.93;;;;;;;;;;5052226;28;20041;-71
2022/03/13 14:19:27;;;;;;;17.15;11.50;;;;;;;;;;5052188;28;20045;-70
2022/03/13 14:21:53;;;;;;;15.18;11.18;;;;;;;;;;5034414;28;20495;-71